Time;durP1;ratioP1;P1;durP2;ratioP2;P2;SDS_P1;SDS_P2;PMS_P1;PMS_P2;Temp;Humidity;BMP_temperature;BMP_pressure;BME280_temperature;BME280_humidity;BME280_pressure;Samples;Min_cycle;Max_cycle;Signal;HPM_P1;HPM_P2
2023/09/20 00:00:57;;;;;;;0.20;0.20;;;;;;;20.05;61.00;101302.75;4787223;29;20786;-76
2023/09/20 00:03:25;;;;;;;0.10;0.10;;;;;;;20.02;60.83;101305.91;4786174;30;20982;-76
2023/09/20 00:05:54;;;;;;;0.10;0.10;;;;;;;19.89;61.30;101307.84;4786498;29;20420;-77
2023/09/20 00:08:20;;;;;;;0.30;0.30;;;;;;;19.82;61.58;101302.50;4786194;29;20827;-77
2023/09/20 00:10:45;;;;;;;0.13;0.13;;;;;;;19.77;61.60;101305.03;4786525;29;20942;-75
2023/09/20 00:13:14;;;;;;;0.20;0.20;;;;;;;19.82;61.38;101297.94;4785102;30;20896;-77
2023/09/20 00:15:43;;;;;;;0.20;0.20;;;;;;;19.85;61.23;101300.22;4785376;30;20495;-77
2023/09/20 00:18:09;;;;;;;0.50;0.43;;;;;;;19.81;61.18;101296.31;4786108;29;20777;-77
2023/09/20 00:20:36;;;;;;;0.28;0.28;;;;;;;19.78;61.33;101288.66;4785509;30;20893;-77
2023/09/20 00:23:05;;;;;;;0.50;0.50;;;;;;;19.82;61.23;101294.44;4786518;29;20424;-77
2023/09/20 00:25:30;;;;;;;0.30;0.30;;;;;;;19.85;61.02;101291.31;4786947;29;20525;-77
2023/09/20 00:27:56;;;;;;;0.00;0.00;;;;;;;19.88;60.75;101287.34;4785457;30;20857;-77
2023/09/20 00:30:22;;;;;;;0.10;0.10;;;;;;;19.96;60.61;101297.88;4786658;29;20405;-77
2023/09/20 00:32:48;;;;;;;0.10;0.10;;;;;;;19.88;60.72;101304.34;4785381;29;20945;-78
2023/09/20 00:35:16;;;;;;;0.13;0.13;;;;;;;19.82;60.86;101303.31;4785381;30;20916;-78
2023/09/20 00:37:44;;;;;;;0.30;0.30;;;;;;;19.76;60.99;101312.28;4785288;30;20405;-76
2023/09/20 00:40:22;;;;;;;0.10;0.10;;;;;;;19.63;61.57;101321.22;4785191;30;20850;-77
2023/09/20 00:42:50;;;;;;;0.10;0.10;;;;;;;19.43;62.24;101323.19;4785347;30;20408;-76
2023/09/20 00:45:20;;;;;;;0.20;0.20;;;;;;;19.31;62.59;101330.28;4785262;30;20452;-76
2023/09/20 00:47:51;;;;;;;0.10;0.10;;;;;;;19.25;62.74;101329.25;4785182;30;20785;-76
2023/09/20 00:50:18;;;;;;;0.10;0.10;;;;;;;19.22;62.85;101335.06;4785032;30;20491;-76
2023/09/20 00:52:51;;;;;;;0.00;0.00;;;;;;;19.19;62.93;101332.78;4785013;30;20408;-76
2023/09/20 00:55:20;;;;;;;0.25;0.25;;;;;;;19.07;63.17;101327.25;4783976;30;20589;-77
2023/09/20 00:57:51;;;;;;;0.50;0.20;;;;;;;19.05;63.41;101331.97;4784732;29;20412;-77
2023/09/20 01:00:32;;;;;;;0.10;0.10;;;;;;;19.10;63.28;101326.81;4784952;30;20408;-77
2023/09/20 01:03:00;;;;;;;0.10;0.10;;;;;;;19.13;62.97;101333.63;4785855;29;20401;-76
2023/09/20 01:05:26;;;;;;;0.15;0.15;;;;;;;19.14;62.77;101327.22;4784814;30;20516;-76
2023/09/20 01:07:56;;;;;;;0.20;0.20;;;;;;;19.18;62.80;101334.66;4785047;29;20412;-76
2023/09/20 01:10:25;;;;;;;0.10;0.10;;;;;;;19.19;62.54;101325.53;4786000;29;20992;-77
2023/09/20 01:12:58;;;;;;;0.47;0.47;;;;;;;19.21;62.39;101320.78;4784689;30;20408;-78
2023/09/20 01:15:27;;;;;;;0.20;0.20;;;;;;;19.24;62.18;101327.59;4785534;29;20794;-77
2023/09/20 01:17:56;;;;;;;0.70;0.60;;;;;;;19.27;62.13;101324.50;4784343;30;20948;-76
2023/09/20 01:20:24;;;;;;;0.25;0.25;;;;;;;19.37;61.65;101324.03;4785787;29;20408;-76
2023/09/20 01:22:56;;;;;;;0.10;0.10;;;;;;;19.44;61.44;101319.44;4785302;29;20851;-75
2023/09/20 01:25:23;;;;;;;0.13;0.13;;;;;;;19.50;61.23;101321.28;4783927;30;20988;-77
2023/09/20 01:27:56;;;;;;;0.10;0.10;;;;;;;19.49;61.11;101322.31;4783469;30;20434;-76
2023/09/20 01:30:26;;;;;;;0.10;0.10;;;;;;;19.52;60.96;101324.59;4783735;30;20948;-76
2023/09/20 01:32:54;;;;;;;0.10;0.10;;;;;;;19.55;60.92;101323.31;4784874;29;20409;-77
2023/09/20 01:35:21;;;;;;;0.30;0.30;;;;;;;19.56;60.66;101320.44;4785075;29;20523;-78
2023/09/20 01:37:46;;;;;;;0.15;0.15;;;;;;;19.46;60.86;101312.84;4769339;30;20503;-78
2023/09/20 01:40:15;;;;;;;0.17;0.17;;;;;;;19.48;60.90;101312.59;4784174;30;20491;-77
2023/09/20 01:42:49;;;;;;;0.10;0.10;;;;;;;19.48;60.81;101310.75;4784133;30;20404;-76
2023/09/20 01:45:20;;;;;;;0.10;0.10;;;;;;;19.47;60.77;101310.97;4784169;30;20494;-77
2023/09/20 01:47:50;;;;;;;0.13;0.13;;;;;;;19.45;60.79;101310.34;4768698;30;20413;-76
2023/09/20 01:50:20;;;;;;;0.20;0.20;;;;;;;19.45;60.93;101308.47;4785580;29;20404;-76
2023/09/20 01:52:53;;;;;;;0.10;0.10;;;;;;;19.45;60.88;101308.47;4783957;30;20409;-76
2023/09/20 01:55:24;;;;;;;0.10;0.10;;;;;;;19.43;60.82;101313.25;4783946;30;20427;-76
2023/09/20 01:57:55;;;;;;;0.20;0.20;;;;;;;19.37;61.05;101308.72;4784120;30;20404;-76
2023/09/20 02:00:22;;;;;;;0.13;0.13;;;;;;;19.38;61.07;101310.38;4782497;30;20409;-76
2023/09/20 02:02:50;;;;;;;0.30;0.30;;;;;;;19.35;61.00;101312.66;4782252;30;20419;-76
2023/09/20 02:05:17;;;;;;;0.13;0.13;;;;;;;19.36;61.06;101312.47;4766988;30;20475;-77
2023/09/20 02:07:45;;;;;;;0.20;0.20;;;;;;;19.37;60.78;101308.72;4782850;30;20460;-76
2023/09/20 02:10:11;;;;;;;0.20;0.20;;;;;;;19.38;60.85;101318.44;4785271;29;20477;-76
2023/09/20 02:12:39;;;;;;;0.10;0.10;;;;;;;19.40;60.79;101319.03;4783194;30;20473;-76
2023/09/20 02:15:09;;;;;;;0.20;0.20;;;;;;;19.34;61.08;101319.06;4783711;30;20428;-76
2023/09/20 02:17:36;;;;;;;0.40;0.40;;;;;;;19.33;61.24;101315.56;4785205;29;20408;-77
2023/09/20 02:20:24;;;;;;;0.30;0.30;;;;;;;19.25;61.22;101297.00;4785074;29;20503;-76
2023/09/20 02:22:54;;;;;;;0.20;0.20;;;;;;;19.28;61.24;101308.16;4784131;30;20427;-77
2023/09/20 02:25:21;;;;;;;0.20;0.20;;;;;;;19.35;61.18;101312.66;4768979;30;20417;-77
2023/09/20 02:27:52;;;;;;;0.10;0.10;;;;;;;19.42;60.80;101319.66;4783437;29;20448;-77
2023/09/20 02:30:19;;;;;;;0.20;0.20;;;;;;;19.47;60.72;101313.66;4784186;29;20416;-77
2023/09/20 02:32:49;;;;;;;0.10;0.10;;;;;;;19.53;60.40;101314.66;4783134;29;20429;-75
2023/09/20 02:35:16;;;;;;;0.27;0.27;;;;;;;19.45;60.48;101316.53;4784368;29;20448;-75
2023/09/20 02:37:43;;;;;;;0.30;0.30;;;;;;;19.31;60.71;101320.34;4784381;29;20420;-76
2023/09/20 02:40:20;;;;;;;0.13;0.13;;;;;;;19.27;61.15;101325.31;4783465;30;20495;-77
2023/09/20 02:42:54;;;;;;;0.30;0.30;;;;;;;19.14;61.59;101329.91;4783748;30;20765;-77
2023/09/20 02:45:23;;;;;;;0.10;0.10;;;;;;;19.07;61.74;101320.00;4783679;30;20416;-76
2023/09/20 02:47:49;;;;;;;0.10;0.10;;;;;;;19.00;62.12;101329.13;4785034;29;20396;-76
2023/09/20 02:50:22;;;;;;;0.35;0.35;;;;;;;18.94;62.38;101330.78;4783567;30;20413;-77
2023/09/20 02:52:48;;;;;;;0.13;0.13;;;;;;;18.91;62.36;101325.84;4783091;29;20468;-76
2023/09/20 02:55:17;;;;;;;0.30;0.30;;;;;;;18.95;62.16;101324.38;4767329;30;20412;-75
2023/09/20 02:57:44;;;;;;;0.38;0.38;;;;;;;18.86;62.58;101321.09;4783308;30;20419;-76
2023/09/20 03:00:15;;;;;;;0.30;0.30;;;;;;;18.79;62.69;101322.13;4783291;30;20412;-77
2023/09/20 03:02:56;;;;;;;0.17;0.17;;;;;;;18.79;62.99;101324.81;4783023;30;21131;-77
2023/09/20 03:05:32;;;;;;;0.10;0.10;;;;;;;18.85;62.51;101322.13;4784553;29;20408;-77
2023/09/20 03:08:01;;;;;;;0.32;0.32;;;;;;;18.84;62.56;101308.91;4784429;29;20408;-78
2023/09/20 03:10:28;;;;;;;0.22;0.22;;;;;;;18.88;62.41;101316.31;4783259;30;20498;-76
2023/09/20 03:12:57;;;;;;;0.25;0.25;;;;;;;18.92;62.45;101308.66;4768740;30;20443;-76
2023/09/20 03:15:24;;;;;;;0.13;0.13;;;;;;;18.70;62.87;101310.75;4784565;29;20411;-77
2023/09/20 03:17:52;;;;;;;0.13;0.13;;;;;;;18.59;63.47;101311.41;4784537;29;20435;-76
2023/09/20 03:20:24;;;;;;;0.40;0.40;;;;;;;18.53;63.67;101307.69;4787224;29;20444;-76
2023/09/20 03:23:02;;;;;;;0.28;0.28;;;;;;;18.50;63.83;101306.25;4772077;30;20484;-77
2023/09/20 03:25:37;;;;;;;0.17;0.17;;;;;;;18.48;63.83;101296.75;4772250;30;20601;-77
2023/09/20 03:28:09;;;;;;;0.10;0.10;;;;;;;18.59;63.49;101293.44;4786523;29;21019;-77
2023/09/20 03:30:38;;;;;;;0.10;0.10;;;;;;;18.57;63.36;101294.69;4786902;30;20487;-77
2023/09/20 03:33:05;;;;;;;0.10;0.10;;;;;;;18.71;62.92;101301.69;4787448;29;20800;-76
2023/09/20 03:35:32;;;;;;;0.10;0.10;;;;;;;18.80;62.61;101300.41;4787465;29;20784;-77
2023/09/20 03:38:05;;;;;;;0.10;0.10;;;;;;;18.88;62.55;101294.03;4787775;29;20431;-76
2023/09/20 03:40:32;;;;;;;0.10;0.10;;;;;;;18.88;62.15;101294.03;4787169;29;20508;-76
2023/09/20 03:42:57;;;;;;;0.30;0.30;;;;;;;18.82;62.27;101290.31;4785993;29;20455;-75
2023/09/20 03:45:23;;;;;;;0.40;0.40;;;;;;;18.90;62.17;101295.44;4785667;29;20428;-77
2023/09/20 03:47:49;;;;;;;0.17;0.17;;;;;;;18.91;62.07;101289.06;4786115;30;20951;-75
2023/09/20 03:50:19;;;;;;;0.10;0.10;;;;;;;18.93;61.84;101290.72;4786244;29;20797;-76
2023/09/20 03:52:48;;;;;;;0.30;0.30;;;;;;;18.96;61.76;101285.75;4787220;29;20412;-78
2023/09/20 03:55:13;;;;;;;0.10;0.10;;;;;;;18.96;61.78;101287.59;4786375;29;20551;-76
2023/09/20 03:57:40;;;;;;;0.30;0.30;;;;;;;18.90;61.90;101294.63;4787363;29;20916;-77
2023/09/20 04:00:11;;;;;;;0.10;0.10;;;;;;;18.89;61.91;101296.50;4786003;29;20484;-78
2023/09/20 04:02:37;;;;;;;0.20;0.20;;;;;;;18.84;62.27;101300.84;4785776;29;20415;-77
2023/09/20 04:05:10;;;;;;;0.40;0.30;;;;;;;18.74;62.39;101293.19;4784897;29;20949;-76
2023/09/20 04:07:36;;;;;;;0.65;0.60;;;;;;;18.73;62.62;101296.91;4787055;29;20427;-76
2023/09/20 04:10:02;;;;;;;0.30;0.30;;;;;;;18.71;62.86;101305.19;4785536;30;20424;-77
2023/09/20 04:12:28;;;;;;;0.20;0.20;;;;;;;18.74;62.77;101311.97;4784692;29;20428;-76
2023/09/20 04:14:54;;;;;;;0.10;0.10;;;;;;;18.80;62.62;101307.63;4785289;30;20416;-75
2023/09/20 04:17:22;;;;;;;0.10;0.10;;;;;;;18.95;62.05;101312.81;4787245;29;20408;-76
2023/09/20 04:19:48;;;;;;;0.10;0.10;;;;;;;19.07;61.63;101320.00;4786474;29;20473;-77
2023/09/20 04:22:15;;;;;;;0.25;0.25;;;;;;;19.13;61.45;101310.28;4785384;30;20442;-76
2023/09/20 04:24:40;;;;;;;0.10;0.10;;;;;;;19.17;61.08;101310.66;4785149;29;20428;-77
2023/09/20 04:27:08;;;;;;;0.10;0.10;;;;;;;19.18;61.12;101315.03;4785109;29;20428;-75
2023/09/20 04:29:37;;;;;;;0.10;0.10;;;;;;;19.23;61.13;101323.25;4786462;29;20436;-76
2023/09/20 04:32:07;;;;;;;0.30;0.30;;;;;;;19.23;61.03;101323.25;4784774;30;20569;-76
2023/09/20 04:34:33;;;;;;;0.10;0.10;;;;;;;19.26;60.94;101333.59;4785200;29;20416;-77
2023/09/20 04:37:01;;;;;;;0.10;0.10;;;;;;;19.17;61.21;101338.38;4769559;30;20416;-77
2023/09/20 04:39:30;;;;;;;0.65;0.28;;;;;;;19.20;61.14;101340.63;4786173;29;20400;-77
2023/09/20 04:41:56;;;;;;;0.10;0.10;;;;;;;19.27;60.97;101333.38;4785171;29;20401;-78
2023/09/20 04:44:21;;;;;;;0.10;0.10;;;;;;;19.34;60.70;101329.81;4785381;29;20408;-76
2023/09/20 04:46:47;;;;;;;0.17;0.17;;;;;;;19.40;60.57;101331.69;4786810;29;20432;-76
2023/09/20 04:49:14;;;;;;;0.10;0.10;;;;;;;19.44;60.55;101330.19;4785540;29;20477;-77
2023/09/20 04:51:42;;;;;;;0.30;0.30;;;;;;;19.50;60.57;101334.75;4785220;29;20475;-77
2023/09/20 04:54:08;;;;;;;0.70;0.40;;;;;;;19.54;60.39;101327.06;4786084;29;20762;-78
2023/09/20 04:56:34;;;;;;;0.77;0.47;;;;;;;19.64;60.43;101327.41;4784836;30;20428;-78
2023/09/20 04:59:04;;;;;;;0.10;0.10;;;;;;;19.67;60.40;101325.13;4785114;29;20415;-78
2023/09/20 05:01:30;;;;;;;0.20;0.20;;;;;;;19.73;60.28;101322.59;4784957;30;20927;-76
2023/09/20 05:03:55;;;;;;;0.10;0.10;;;;;;;19.75;60.29;101315.19;4770400;30;20421;-76
2023/09/20 05:06:26;;;;;;;0.25;0.25;;;;;;;19.78;60.53;101330.91;4785488;29;20429;-76
2023/09/20 05:08:53;;;;;;;0.40;0.40;;;;;;;19.77;60.73;101327.38;4786283;29;20932;-78
2023/09/20 05:11:19;;;;;;;0.10;0.10;;;;;;;19.83;60.37;101336.44;4785181;30;20408;-76
2023/09/20 05:13:45;;;;;;;0.38;0.38;;;;;;;19.85;60.62;101331.69;4784640;30;20416;-76
2023/09/20 05:16:11;;;;;;;0.40;0.40;;;;;;;19.98;60.54;101334.28;4770564;30;20495;-77
2023/09/20 05:18:45;;;;;;;0.70;0.60;;;;;;;19.93;60.64;101327.91;4785197;29;20503;-77
2023/09/20 05:21:10;;;;;;;0.20;0.20;;;;;;;19.98;60.55;101336.16;4784371;30;20412;-76
2023/09/20 05:23:36;;;;;;;0.32;0.32;;;;;;;20.07;60.61;101342.09;4783855;29;20856;-77
2023/09/20 05:26:02;;;;;;;0.60;0.50;;;;;;;20.12;60.61;101340.41;4784448;30;20462;-77
2023/09/20 05:28:27;;;;;;;0.10;0.10;;;;;;;20.19;60.27;101338.47;4784949;29;20420;-78
2023/09/20 05:31:00;;;;;;;0.20;0.20;;;;;;;20.29;60.31;101342.53;4785273;29;20397;-77
2023/09/20 05:33:25;;;;;;;1.20;0.70;;;;;;;20.42;59.99;101348.66;4784261;29;20430;-78
2023/09/20 05:35:52;;;;;;;0.10;0.10;;;;;;;20.50;59.85;101346.72;4784107;29;20392;-77
2023/09/20 05:38:21;;;;;;;0.30;0.30;;;;;;;20.62;59.93;101345.00;4785252;29;20412;-77
2023/09/20 05:40:47;;;;;;;0.30;0.30;;;;;;;20.70;59.67;101343.88;4785400;29;20400;-75
2023/09/20 05:43:13;;;;;;;0.10;0.10;;;;;;;20.75;59.75;101347.56;4784689;29;20431;-77
2023/09/20 05:45:41;;;;;;;0.13;0.13;;;;;;;20.79;59.73;101332.59;4785291;29;20428;-76
2023/09/20 05:48:10;;;;;;;0.10;0.10;;;;;;;20.81;59.55;101338.59;4784332;30;20420;-79
2023/09/20 05:50:37;;;;;;;0.10;0.10;;;;;;;20.93;59.61;101340.56;4784070;30;20404;-78
2023/09/20 05:53:11;;;;;;;0.25;0.25;;;;;;;21.04;59.50;101345.19;4769375;30;20416;-77
2023/09/20 05:55:44;;;;;;;0.10;0.10;;;;;;;21.12;59.31;101349.44;4784329;30;20412;-76
2023/09/20 05:58:16;;;;;;;0.08;0.08;;;;;;;21.14;59.14;101347.34;4784469;30;20456;-77
2023/09/20 06:01:07;;;;;;;0.20;0.20;;;;;;;21.22;59.03;101347.06;4783795;29;20975;-78
2023/09/20 06:03:32;;;;;;;0.20;0.20;;;;;;;21.29;58.96;101349.69;4732381;30;20423;-78
2023/09/20 06:05:58;;;;;;;0.20;0.20;;;;;;;21.29;58.88;101353.19;4777694;30;20428;-77
2023/09/20 06:08:26;;;;;;;0.60;0.60;;;;;;;21.28;59.00;101356.94;4784202;29;20419;-76
2023/09/20 06:10:52;;;;;;;0.10;0.10;;;;;;;21.23;59.01;101359.50;4783797;29;20419;-78
2023/09/20 06:13:20;;;;;;;0.25;0.20;;;;;;;21.35;58.99;101351.47;4784925;29;20400;-80
2023/09/20 06:15:45;;;;;;;0.30;0.30;;;;;;;21.51;58.71;101358.16;4784859;29;20419;-79
2023/09/20 06:18:14;;;;;;;1.10;0.50;;;;;;;21.56;58.41;101348.31;4783466;29;20420;-76
2023/09/20 06:20:47;;;;;;;0.10;0.10;;;;;;;21.68;58.38;101352.94;4783884;29;20463;-77
2023/09/20 06:23:13;;;;;;;0.10;0.10;;;;;;;21.67;58.19;101345.91;4769105;30;20435;-77
2023/09/20 06:25:41;;;;;;;0.10;0.10;;;;;;;21.73;58.27;101343.13;4800262;29;20430;-77
2023/09/20 06:28:09;;;;;;;0.50;0.40;;;;;;;21.84;58.26;101351.47;4785108;29;20474;-77
2023/09/20 06:30:37;;;;;;;0.52;0.52;;;;;;;21.90;57.83;101355.97;4764558;30;20422;-80
2023/09/20 06:33:04;;;;;;;0.20;0.20;;;;;;;21.91;57.91;101347.66;4764351;30;20421;-78
2023/09/20 06:35:30;;;;;;;0.73;0.73;;;;;;;21.95;57.74;101345.31;4764540;30;20908;-79
2023/09/20 06:37:58;;;;;;;0.50;0.40;;;;;;;22.02;57.74;101353.28;4735298;30;20475;-79
2023/09/20 06:40:33;;;;;;;0.15;0.15;;;;;;;22.07;57.59;101362.34;4764569;30;20414;-77
2023/09/20 06:43:00;;;;;;;0.20;0.20;;;;;;;22.14;57.59;101360.38;4764790;30;20425;-78
2023/09/20 06:45:27;;;;;;;0.63;0.63;;;;;;;22.22;57.35;101356.53;4765439;30;20493;-77
2023/09/20 06:47:55;;;;;;;0.20;0.20;;;;;;;22.28;57.36;101358.31;4764997;29;20438;-78
2023/09/20 06:50:21;;;;;;;0.38;0.38;;;;;;;22.28;57.21;101357.50;4764479;29;20418;-78
2023/09/20 06:52:48;;;;;;;0.20;0.20;;;;;;;22.35;57.19;101360.09;4765876;30;20406;-78
2023/09/20 06:55:16;;;;;;;0.38;0.38;;;;;;;22.42;57.07;101360.78;4767505;30;20475;-77
2023/09/20 06:57:42;;;;;;;0.10;0.10;;;;;;;22.49;56.73;101364.22;4736619;30;20419;-78
2023/09/20 07:00:28;;;;;;;0.10;0.10;;;;;;;22.49;56.50;101356.94;4732504;30;20427;-77
2023/09/20 07:02:55;;;;;;;0.20;0.10;;;;;;;22.59;56.61;101371.75;4768174;30;20420;-77
2023/09/20 07:05:24;;;;;;;0.20;0.20;;;;;;;22.68;56.33;101373.03;4753091;30;20432;-76
2023/09/20 07:07:51;;;;;;;0.10;0.10;;;;;;;22.77;56.32;101362.72;4768041;30;20402;-78
2023/09/20 07:10:17;;;;;;;0.20;0.20;;;;;;;22.85;56.22;101368.59;4753203;30;20426;-77
2023/09/20 07:12:45;;;;;;;0.50;0.30;;;;;;;22.97;56.17;101367.75;4767810;30;20414;-77
2023/09/20 07:15:18;;;;;;;0.60;0.60;;;;;;;23.06;56.21;101377.97;4737989;30;20945;-77
2023/09/20 07:17:58;;;;;;;0.10;0.10;;;;;;;23.09;55.89;101372.09;4767849;30;20418;-77
2023/09/20 07:20:24;;;;;;;0.40;0.40;;;;;;;23.14;56.00;101374.09;4753591;30;20484;-78
2023/09/20 07:22:51;;;;;;;0.10;0.10;;;;;;;23.17;56.02;101373.63;4767794;30;20414;-78
2023/09/20 07:25:19;;;;;;;0.10;0.10;;;;;;;23.36;55.79;101376.19;4767541;30;20456;-77
2023/09/20 07:27:49;;;;;;;0.25;0.25;;;;;;;23.44;55.72;101373.94;4767456;30;20555;-77
2023/09/20 07:30:19;;;;;;;0.17;0.17;;;;;;;23.67;55.68;101374.91;4770879;30;20443;-79
2023/09/20 07:32:47;;;;;;;0.10;0.10;;;;;;;23.73;55.74;101373.91;4788247;29;20419;-77
2023/09/20 07:35:36;;;;;;;0.10;0.10;;;;;;;23.79;55.52;101375.66;4787574;29;20424;-77
2023/09/20 07:38:04;;;;;;;0.70;0.70;;;;;;;23.75;55.38;101376.38;4786992;29;20440;-79
2023/09/20 07:40:31;;;;;;;1.00;0.90;;;;;;;23.74;55.10;101370.16;4803376;29;20412;-78
2023/09/20 07:43:04;;;;;;;0.40;0.40;;;;;;;23.85;55.08;101371.19;4803846;29;20938;-80
2023/09/20 07:45:42;;;;;;;0.15;0.15;;;;;;;23.82;54.82;101377.09;4789294;29;20454;-81
2023/09/20 07:48:14;;;;;;;0.15;0.15;;;;;;;24.02;54.66;101373.94;4789137;29;20414;-78
2023/09/20 07:50:49;;;;;;;0.28;0.28;;;;;;;24.12;54.48;101373.31;4803142;29;20600;-78
2023/09/20 07:53:15;;;;;;;0.52;0.52;;;;;;;24.26;54.45;101380.06;4788199;29;20810;-78
2023/09/20 07:55:45;;;;;;;0.75;0.22;;;;;;;24.33;54.20;101367.16;4803181;29;20414;-78
2023/09/20 07:58:15;;;;;;;0.20;0.20;;;;;;;24.38;54.30;101355.56;4787987;29;20518;-78
2023/09/20 08:00:44;;;;;;;0.30;0.30;;;;;;;24.33;54.30;101364.44;4803040;29;20407;-77
2023/09/20 08:03:11;;;;;;;0.30;0.30;;;;;;;24.40;54.32;101354.28;4802804;29;20411;-79
2023/09/20 08:05:41;;;;;;;0.10;0.10;;;;;;;24.60;54.06;101356.50;4802893;29;20514;-81
2023/09/20 08:08:08;;;;;;;0.40;0.40;;;;;;;24.63;53.96;101360.59;4802889;29;20526;-78
2023/09/20 08:10:37;;;;;;;0.30;0.30;;;;;;;24.60;53.83;101352.97;4785900;29;20410;-82
2023/09/20 08:13:10;;;;;;;1.88;0.57;;;;;;;24.71;53.85;101356.66;4787876;29;20781;-79
2023/09/20 08:15:48;;;;;;;0.20;0.20;;;;;;;24.78;53.60;101346.47;4787335;29;20958;-79
2023/09/20 08:21:03;;;;;;;0.15;0.15;;;;;;;24.96;53.15;101348.06;4786210;30;20408;-80
2023/09/20 08:59:51;;;;;;;0.38;0.38;;;;;;;26.16;48.17;101340.97;4785691;30;20406;-80
2023/09/20 09:02:17;;;;;;;0.10;0.10;;;;;;;26.22;47.33;101342.66;4784524;30;20413;-78
2023/09/20 09:04:53;;;;;;;0.20;0.20;;;;;;;26.22;46.64;101324.47;4784830;29;20408;-80
2023/09/20 09:07:22;;;;;;;0.37;0.37;;;;;;;26.27;46.98;101331.81;4786202;29;20428;-78
2023/09/20 09:09:49;;;;;;;0.10;0.10;;;;;;;26.26;47.48;101328.28;4785247;30;20461;-79
2023/09/20 09:12:14;;;;;;;0.50;0.50;;;;;;;26.31;46.39;101325.63;4799803;29;20409;-78
2023/09/20 09:14:42;;;;;;;0.30;0.30;;;;;;;26.41;46.37;101326.75;4783743;29;20492;-79
2023/09/20 09:17:11;;;;;;;0.40;0.40;;;;;;;26.49;46.88;101316.22;4784513;30;20412;-79
2023/09/20 09:19:38;;;;;;;1.60;0.30;;;;;;;26.48;47.37;101317.28;4786070;29;20907;-79
2023/09/20 09:22:04;;;;;;;0.20;0.20;;;;;;;26.51;47.68;101311.34;4769903;30;20499;-78
2023/09/20 09:24:46;;;;;;;0.45;0.45;;;;;;;26.59;47.24;101307.28;4784568;29;20501;-79
2023/09/20 09:27:12;;;;;;;0.30;0.30;;;;;;;26.74;45.55;101314.78;4784408;30;20991;-79
2023/09/20 09:29:38;;;;;;;0.20;0.20;;;;;;;26.88;43.19;101312.38;4784384;29;20492;-79
2023/09/20 09:32:05;;;;;;;0.20;0.20;;;;;;;27.02;42.90;101305.34;4785786;29;20424;-79
2023/09/20 09:34:31;;;;;;;0.10;0.10;;;;;;;27.02;43.83;101302.63;4785455;29;20436;-79
2023/09/20 09:36:57;;;;;;;0.10;0.10;;;;;;;27.04;41.47;101305.91;4785310;29;20416;-77
2023/09/20 09:39:25;;;;;;;0.10;0.10;;;;;;;27.18;41.98;101295.34;4785435;29;20762;-78
2023/09/20 09:41:51;;;;;;;0.20;0.20;;;;;;;27.32;40.71;101294.88;4784454;30;20488;-78
2023/09/20 09:44:17;;;;;;;0.25;0.25;;;;;;;27.38;38.94;101301.97;4784491;29;20416;-78
2023/09/20 09:46:44;;;;;;;0.10;0.10;;;;;;;27.40;38.62;101292.44;4784125;30;20520;-80
2023/09/20 09:49:11;;;;;;;0.10;0.10;;;;;;;27.41;38.53;101287.84;4785556;29;20916;-78
2023/09/20 09:51:50;;;;;;;0.30;0.20;;;;;;;27.54;38.85;101289.22;4784262;29;20928;-79
2023/09/20 09:54:21;;;;;;;0.10;0.10;;;;;;;27.71;39.83;101297.94;4785488;29;20410;-79
2023/09/20 09:56:49;;;;;;;0.17;0.17;;;;;;;27.49;37.13;101294.66;4769828;30;20431;-78
2023/09/20 09:59:15;;;;;;;0.10;0.10;;;;;;;27.54;37.33;101300.09;4785438;29;20943;-80
2023/09/20 10:01:46;;;;;;;0.20;0.20;;;;;;;27.63;37.78;101290.31;4784053;30;20470;-78
2023/09/20 10:04:12;;;;;;;0.20;0.20;;;;;;;27.78;38.57;101289.50;4785159;29;20758;-80
2023/09/20 10:07:09;;;;;;;0.70;0.30;;;;;;;27.85;38.62;101284.59;4769132;30;20509;-80
2023/09/20 10:09:39;;;;;;;0.10;0.10;;;;;;;27.75;37.51;101279.13;4769443;30;20525;-79
2023/09/20 10:12:07;;;;;;;0.20;0.20;;;;;;;27.81;37.83;101278.88;4783982;30;20417;-79
2023/09/20 10:14:37;;;;;;;0.10;0.10;;;;;;;27.76;36.86;101283.50;4784200;30;20508;-79
2023/09/20 10:17:08;;;;;;;0.30;0.30;;;;;;;27.75;37.28;101270.97;4784224;30;20452;-81
2023/09/20 10:19:34;;;;;;;0.10;0.10;;;;;;;27.84;37.79;101272.09;4769630;30;20489;-78
2023/09/20 10:22:09;;;;;;;0.10;0.10;;;;;;;28.02;37.51;101268.81;4783899;30;20503;-79
2023/09/20 10:24:53;;;;;;;0.10;0.10;;;;;;;28.08;36.78;101271.56;4769095;30;20412;-78
2023/09/20 10:27:27;;;;;;;0.10;0.10;;;;;;;28.03;36.62;101264.19;4784819;29;20427;-79
2023/09/20 10:30:14;;;;;;;0.10;0.10;;;;;;;27.97;35.49;101268.81;4782949;30;20537;-79
2023/09/20 10:32:56;;;;;;;0.10;0.10;;;;;;;27.91;35.13;101260.91;4784836;29;20427;-80
2023/09/20 10:35:42;;;;;;;0.17;0.17;;;;;;;27.99;34.27;101258.47;4784140;30;20453;-79
2023/09/20 10:38:08;;;;;;;0.10;0.10;;;;;;;28.02;34.93;101248.94;4783748;30;20428;-82
2023/09/20 10:41:03;;;;;;;0.10;0.10;;;;;;;28.06;34.73;101241.84;4783776;30;20408;-80
2023/09/20 10:43:35;;;;;;;0.10;0.10;;;;;;;28.14;35.18;101241.25;4767414;30;20793;-80
2023/09/20 10:46:08;;;;;;;0.10;0.10;;;;;;;28.20;35.03;101242.91;4784953;29;20424;-81
2023/09/20 10:48:34;;;;;;;0.10;0.10;;;;;;;28.18;34.58;101236.91;4769311;30;20481;-79
2023/09/20 10:51:03;;;;;;;0.20;0.20;;;;;;;28.22;34.77;101239.91;4783742;29;20416;-80
2023/09/20 10:53:44;;;;;;;0.10;0.10;;;;;;;28.24;34.05;101229.53;4784727;29;20447;-80
2023/09/20 10:56:33;;;;;;;0.10;0.10;;;;;;;28.31;34.45;101230.06;4784768;29;20499;-79
2023/09/20 10:58:59;;;;;;;0.10;0.10;;;;;;;28.37;34.66;101228.13;4783493;30;20416;-81
2023/09/20 11:01:26;;;;;;;0.10;0.10;;;;;;;28.44;35.55;101228.66;4797383;29;20494;-78
2023/09/20 11:03:53;;;;;;;0.10;0.10;;;;;;;28.46;35.43;101221.00;4781126;30;20420;-80
2023/09/20 11:06:19;;;;;;;0.10;0.10;;;;;;;28.48;36.05;101216.09;4783883;29;20428;-79
2023/09/20 11:08:44;;;;;;;0.13;0.13;;;;;;;28.56;35.73;101215.56;4782507;29;20423;-81
2023/09/20 11:11:15;;;;;;;0.20;0.20;;;;;;;28.73;35.76;101222.59;4783629;30;20401;-78
2023/09/20 11:13:46;;;;;;;0.20;0.20;;;;;;;28.64;35.72;101207.91;4783747;29;20405;-79
2023/09/20 11:16:13;;;;;;;0.10;0.10;;;;;;;28.73;35.74;101206.22;4784562;29;20418;-78
2023/09/20 11:18:42;;;;;;;0.60;0.60;;;;;;;28.82;35.29;101209.19;4784888;29;20493;-79
2023/09/20 11:21:08;;;;;;;0.40;0.40;;;;;;;28.82;35.71;101201.00;4784435;29;20408;-79
2023/09/20 11:23:34;;;;;;;0.10;0.10;;;;;;;28.85;36.77;101205.91;4785137;29;20414;-79
2023/09/20 11:26:00;;;;;;;0.10;0.10;;;;;;;28.96;37.20;101202.81;4784665;29;20431;-80
2023/09/20 11:28:27;;;;;;;0.10;0.10;;;;;;;29.02;37.12;101209.03;4768510;30;20519;-78
2023/09/20 11:30:53;;;;;;;0.28;0.28;;;;;;;29.02;37.47;101208.25;4784668;29;20538;-79
2023/09/20 11:33:29;;;;;;;0.30;0.30;;;;;;;29.07;37.42;101200.84;4783618;29;20911;-79
2023/09/20 11:35:54;;;;;;;0.20;0.20;;;;;;;29.06;37.42;101199.19;4769357;30;20416;-79
2023/09/20 11:38:22;;;;;;;0.30;0.30;;;;;;;29.07;37.73;101195.38;4783437;29;20557;-82
2023/09/20 11:40:51;;;;;;;0.20;0.20;;;;;;;29.08;37.65;101205.22;4787040;30;20408;-82
2023/09/20 11:43:22;;;;;;;0.10;0.10;;;;;;;29.04;35.85;101200.59;4788400;30;20960;-81
2023/09/20 11:45:53;;;;;;;0.30;0.30;;;;;;;29.14;35.13;101201.38;4801821;29;20460;-79
2023/09/20 11:48:22;;;;;;;0.10;0.10;;;;;;;29.12;34.34;101195.34;4788050;29;20415;-81
2023/09/20 11:50:50;;;;;;;0.30;0.30;;;;;;;29.09;34.64;101200.56;4786599;30;20416;-83
2023/09/20 11:53:22;;;;;;;0.10;0.10;;;;;;;29.06;34.43;101190.19;4787576;29;20408;-80
2023/09/20 11:55:48;;;;;;;0.10;0.10;;;;;;;29.09;35.14;101184.97;4772073;30;20569;-80
2023/09/20 11:58:19;;;;;;;0.20;0.20;;;;;;;29.27;35.71;101186.25;4787501;29;20512;-83
2023/09/20 12:00:47;;;;;;;0.20;0.20;;;;;;;29.23;35.46;101181.66;4756070;30;20428;-79
2023/09/20 12:03:15;;;;;;;0.50;0.50;;;;;;;29.21;35.43;101179.22;4787057;29;20408;-81
2023/09/20 12:05:42;;;;;;;0.10;0.10;;;;;;;29.29;36.00;101186.78;4785601;29;20405;-82
2023/09/20 12:08:09;;;;;;;0.10;0.10;;;;;;;29.35;34.89;101172.00;4787137;29;20413;-78
2023/09/20 12:10:34;;;;;;;0.15;0.15;;;;;;;29.36;35.06;101173.63;4785910;29;20396;-81
2023/09/20 12:13:00;;;;;;;0.10;0.10;;;;;;;29.45;33.84;101178.47;4784197;29;20488;-78